Time;durP1;ratioP1;P1;durP2;ratioP2;P2;SDS_P1;SDS_P2;PMS_P1;PMS_P2;Temp;Humidity;BMP_temperature;BMP_pressure;BME280_temperature;BME280_humidity;BME280_pressure;Samples;Min_cycle;Max_cycle;Signal;HPM_P1;HPM_P2
2021/07/16 00:01:28;;;;;;;;;8.75;8.00;;;;;;;;5006481;28;8937;-87
2021/07/16 00:03:56;;;;;;;;;8.00;8.00;;;;;;;;5004789;28;8882;-87
2021/07/16 00:06:23;;;;;;;;;8.00;7.50;;;;;;;;5009865;28;8899;-91
2021/07/16 00:08:52;;;;;;;;;10.75;9.25;;;;;;;;5019194;28;8907;-90
2021/07/16 00:11:19;;;;;;;;;6.50;6.50;;;;;;;;5006309;28;8904;-91
2021/07/16 00:16:28;;;;;;;;;9.00;9.00;;;;;;;;5002887;28;8899;-91
2021/07/16 00:18:56;;;;;;;;;8.75;8.75;;;;;;;;5005510;28;9021;-91
2021/07/16 00:21:23;;;;;;;;;13.00;9.75;;;;;;;;5019930;28;8962;-90
2021/07/16 00:23:52;;;;;;;;;5.00;5.00;;;;;;;;5008275;28;8854;-96
2021/07/16 00:29:37;;;;;;;;;6.00;6.00;;;;;;;;4940763;28;9631;-91
2021/07/16 00:32:05;;;;;;;;;7.75;7.75;;;;;;;;4993181;28;8840;-91
2021/07/16 00:34:32;;;;;;;;;11.25;9.25;;;;;;;;5005910;28;8875;-92
2021/07/16 00:36:59;;;;;;;;;9.25;6.25;;;;;;;;4989891;28;8977;-91
2021/07/16 00:39:28;;;;;;;;;9.00;9.00;;;;;;;;5005532;28;8921;-90
2021/07/16 00:41:55;;;;;;;;;7.25;7.25;;;;;;;;5006172;28;8988;-89
2021/07/16 00:44:23;;;;;;;;;3.25;3.25;;;;;;;;5004913;28;8936;-88
2021/07/16 00:46:50;;;;;;;;;8.25;8.25;;;;;;;;5007282;28;8981;-93
2021/07/16 00:49:17;;;;;;;;;9.25;7.50;;;;;;;;5005888;28;8886;-95
2021/07/16 00:51:45;;;;;;;;;7.00;6.50;;;;;;;;5014377;28;8877;-92
2021/07/16 00:54:12;;;;;;;;;9.25;7.75;;;;;;;;5007109;28;8946;-94
2021/07/16 00:56:43;;;;;;;;;7.00;7.00;;;;;;;;5007060;28;8867;-94
2021/07/16 00:59:15;;;;;;;;;8.25;8.25;;;;;;;;5011083;28;8982;-96
2021/07/16 01:01:43;;;;;;;;;9.25;7.75;;;;;;;;5005903;28;8813;-89
2021/07/16 01:04:11;;;;;;;;;7.25;7.00;;;;;;;;5006153;28;8870;-94
2021/07/16 01:06:38;;;;;;;;;8.25;8.00;;;;;;;;5007289;28;8868;-90
2021/07/16 01:09:06;;;;;;;;;7.00;7.00;;;;;;;;5007863;28;9105;-95
2021/07/16 01:11:33;;;;;;;;;7.50;7.50;;;;;;;;5005463;28;8859;-91
2021/07/16 01:14:02;;;;;;;;;7.50;7.50;;;;;;;;5004718;28;8940;-96
2021/07/16 01:16:30;;;;;;;;;8.50;8.50;;;;;;;;4995368;28;8880;-90
2021/07/16 01:18:58;;;;;;;;;10.25;10.25;;;;;;;;5006838;28;8871;-90
2021/07/16 01:21:29;;;;;;;;;7.25;6.75;;;;;;;;5007402;28;8987;-89
2021/07/16 01:23:58;;;;;;;;;9.25;7.00;;;;;;;;5006361;28;8847;-87
2021/07/16 01:26:26;;;;;;;;;8.00;8.00;;;;;;;;5006994;28;8911;-87
2021/07/16 01:28:53;;;;;;;;;7.75;5.50;;;;;;;;5003974;28;8895;-87
2021/07/16 01:31:20;;;;;;;;;10.00;8.25;;;;;;;;5006588;28;8830;-87
2021/07/16 01:33:48;;;;;;;;;9.50;8.00;;;;;;;;5008483;28;8885;-92
2021/07/16 01:36:15;;;;;;;;;6.00;6.00;;;;;;;;5007351;28;8910;-87
2021/07/16 01:42:52;;;;;;;;;8.25;8.25;;;;;;;;4931823;29;8969;-87
2021/07/16 01:45:22;;;;;;;;;6.00;6.00;;;;;;;;4943054;28;8998;-91
2021/07/16 01:47:52;;;;;;;;;7.50;7.50;;;;;;;;4969214;28;8881;-89
2021/07/16 01:50:20;;;;;;;;;8.25;8.25;;;;;;;;4968096;28;8885;-90
2021/07/16 01:52:48;;;;;;;;;6.75;6.75;;;;;;;;4961785;28;8855;-89
2021/07/16 01:55:16;;;;;;;;;7.25;7.25;;;;;;;;4959326;28;8879;-87
2021/07/16 01:57:46;;;;;;;;;9.00;7.00;;;;;;;;4950203;28;8879;-89
2021/07/16 02:00:15;;;;;;;;;5.00;5.00;;;;;;;;4996460;28;9033;-87
2021/07/16 02:02:52;;;;;;;;;8.00;8.00;;;;;;;;5001534;28;8862;-89
2021/07/16 02:05:20;;;;;;;;;5.75;5.75;;;;;;;;5003856;28;8863;-93
2021/07/16 02:07:49;;;;;;;;;8.00;6.50;;;;;;;;5004509;28;8900;-87
2021/07/16 02:10:17;;;;;;;;;7.25;7.25;;;;;;;;5006243;28;8897;-86
2021/07/16 02:12:44;;;;;;;;;8.50;8.50;;;;;;;;5009600;28;8998;-88
2021/07/16 02:15:15;;;;;;;;;5.25;5.25;;;;;;;;4997389;28;9120;-87
2021/07/16 02:17:42;;;;;;;;;6.50;6.50;;;;;;;;5004676;28;8887;-91
2021/07/16 02:20:24;;;;;;;;;6.50;6.50;;;;;;;;5006952;28;8862;-92
2021/07/16 02:22:52;;;;;;;;;8.50;5.50;;;;;;;;5007379;28;8954;-89
2021/07/16 02:25:21;;;;;;;;;8.00;6.00;;;;;;;;5004347;28;8871;-89
2021/07/16 02:27:49;;;;;;;;;9.00;9.00;;;;;;;;5008166;28;8923;-90
2021/07/16 02:30:17;;;;;;;;;9.50;7.00;;;;;;;;5009292;28;8877;-87
2021/07/16 02:32:46;;;;;;;;;8.50;8.50;;;;;;;;5008300;28;8900;-87
2021/07/16 02:35:14;;;;;;;;;8.25;8.25;;;;;;;;5007899;28;9217;-86
2021/07/16 02:37:44;;;;;;;;;5.33;5.33;;;;;;;;4994695;28;8898;-88
2021/07/16 02:40:14;;;;;;;;;11.50;9.25;;;;;;;;5013414;28;8880;-89
2021/07/16 02:42:42;;;;;;;;;9.25;9.25;;;;;;;;5010568;28;8907;-86
2021/07/16 02:45:11;;;;;;;;;9.50;9.25;;;;;;;;5008931;28;8904;-86
2021/07/16 02:47:39;;;;;;;;;9.25;9.00;;;;;;;;5006748;28;8867;-87
2021/07/16 02:50:08;;;;;;;;;7.00;7.00;;;;;;;;5008377;28;8992;-88
2021/07/16 02:52:35;;;;;;;;;10.00;8.75;;;;;;;;4992978;28;8883;-88
2021/07/16 02:55:04;;;;;;;;;11.75;9.00;;;;;;;;4989740;28;8972;-85
2021/07/16 02:57:32;;;;;;;;;11.25;9.00;;;;;;;;5011041;28;8982;-88
2021/07/16 02:59:59;;;;;;;;;10.25;10.25;;;;;;;;4993754;28;8871;-86
2021/07/16 03:02:29;;;;;;;;;9.50;8.75;;;;;;;;5017576;28;8816;-90
2021/07/16 03:04:56;;;;;;;;;9.00;8.75;;;;;;;;5022204;28;8909;-91
2021/07/16 03:07:24;;;;;;;;;11.75;10.00;;;;;;;;5008786;28;8980;-93
2021/07/16 03:09:51;;;;;;;;;9.00;8.50;;;;;;;;5009861;28;8851;-90
2021/07/16 03:12:20;;;;;;;;;10.25;9.25;;;;;;;;5006668;28;8867;-87
2021/07/16 03:14:47;;;;;;;;;9.25;9.25;;;;;;;;5007562;28;9250;-87
2021/07/16 03:17:14;;;;;;;;;10.00;8.50;;;;;;;;5015829;28;8865;-89
2021/07/16 03:19:42;;;;;;;;;10.50;7.50;;;;;;;;5011480;28;8963;-87
2021/07/16 03:22:13;;;;;;;;;11.25;9.00;;;;;;;;5005580;28;8875;-90
2021/07/16 03:24:46;;;;;;;;;15.25;11.00;;;;;;;;5007735;28;8870;-88
2021/07/16 03:27:14;;;;;;;;;7.00;7.00;;;;;;;;5005699;28;9002;-90
2021/07/16 03:29:42;;;;;;;;;12.75;9.75;;;;;;;;5019107;28;9773;-88
2021/07/16 03:32:10;;;;;;;;;7.75;7.75;;;;;;;;5027152;28;8940;-90
2021/07/16 03:34:37;;;;;;;;;10.00;9.75;;;;;;;;5027418;28;8864;-91
2021/07/16 03:37:05;;;;;;;;;7.25;7.25;;;;;;;;5031327;28;9613;-89
2021/07/16 03:39:32;;;;;;;;;7.00;6.50;;;;;;;;5029105;28;8863;-90
2021/07/16 03:42:00;;;;;;;;;9.25;8.50;;;;;;;;5018833;28;8901;-88
2021/07/16 03:44:29;;;;;;;;;8.75;7.00;;;;;;;;5025892;28;8873;-88
2021/07/16 03:46:59;;;;;;;;;10.00;9.50;;;;;;;;5020065;28;8911;-86
2021/07/16 03:49:28;;;;;;;;;9.00;9.00;;;;;;;;5012608;28;8869;-89
2021/07/16 03:51:58;;;;;;;;;9.00;7.25;;;;;;;;5016227;28;8928;-90
2021/07/16 03:54:25;;;;;;;;;9.25;8.75;;;;;;;;5027507;28;8939;-89
2021/07/16 03:56:52;;;;;;;;;8.25;8.25;;;;;;;;5029828;28;8881;-88
2021/07/16 03:59:20;;;;;;;;;11.50;10.00;;;;;;;;5020754;28;8891;-88
2021/07/16 04:01:48;;;;;;;;;9.75;8.00;;;;;;;;5026584;28;8851;-92
2021/07/16 04:04:17;;;;;;;;;9.00;9.00;;;;;;;;5030029;28;8872;-87
2021/07/16 04:10:11;;;;;;;;;10.75;9.25;;;;;;;;4979913;28;8829;-88
2021/07/16 04:12:38;;;;;;;;;9.50;8.00;;;;;;;;5037675;28;8863;-89
2021/07/16 04:15:09;;;;;;;;;10.25;8.50;;;;;;;;5023085;28;8984;-82
2021/07/16 04:17:36;;;;;;;;;8.50;8.50;;;;;;;;5014787;28;8872;-79
2021/07/16 04:20:07;;;;;;;;;7.00;7.00;;;;;;;;5007159;28;9831;-80
2021/07/16 04:22:34;;;;;;;;;8.75;8.75;;;;;;;;5024310;28;8865;-79
2021/07/16 04:25:01;;;;;;;;;8.00;8.00;;;;;;;;5007508;28;9632;-80
2021/07/16 04:27:29;;;;;;;;;10.50;9.75;;;;;;;;5023618;28;9670;-81
2021/07/16 04:29:56;;;;;;;;;7.75;7.75;;;;;;;;5021286;28;8883;-81
2021/07/16 04:32:23;;;;;;;;;8.00;7.00;;;;;;;;5009251;28;8789;-82
2021/07/16 04:34:50;;;;;;;;;7.00;7.00;;;;;;;;5011330;28;8880;-82
2021/07/16 04:37:19;;;;;;;;;8.25;8.25;;;;;;;;5009397;28;8998;-82
2021/07/16 04:39:46;;;;;;;;;9.50;8.00;;;;;;;;5011135;28;8883;-82
2021/07/16 04:42:14;;;;;;;;;7.25;7.25;;;;;;;;5006202;28;8877;-82
2021/07/16 04:44:42;;;;;;;;;7.75;7.75;;;;;;;;5003568;28;8887;-82
2021/07/16 04:47:09;;;;;;;;;8.25;6.25;;;;;;;;5010425;28;8890;-83
2021/07/16 04:49:36;;;;;;;;;4.50;3.00;;;;;;;;5007273;28;8985;-82
2021/07/16 04:52:04;;;;;;;;;7.75;7.25;;;;;;;;5012468;28;8898;-83
2021/07/16 04:54:33;;;;;;;;;10.00;6.25;;;;;;;;5003333;28;8905;-83
2021/07/16 04:57:00;;;;;;;;;8.25;6.25;;;;;;;;4998761;28;8872;-83
2021/07/16 04:59:27;;;;;;;;;9.25;7.25;;;;;;;;5006893;28;8879;-82
2021/07/16 05:01:54;;;;;;;;;8.50;8.50;;;;;;;;5010517;28;8955;-82
2021/07/16 05:04:22;;;;;;;;;5.50;5.50;;;;;;;;5024540;28;9669;-81
2021/07/16 05:06:49;;;;;;;;;8.00;6.50;;;;;;;;5002554;28;8871;-83
2021/07/16 05:09:17;;;;;;;;;5.00;5.00;;;;;;;;5005027;28;8870;-82
2021/07/16 05:11:46;;;;;;;;;4.75;4.75;;;;;;;;5002492;28;8859;-86
2021/07/16 05:14:13;;;;;;;;;5.25;4.00;;;;;;;;5002426;28;8863;-82
2021/07/16 05:16:40;;;;;;;;;4.75;4.75;;;;;;;;5002910;28;9318;-82
2021/07/16 05:19:08;;;;;;;;;6.00;6.00;;;;;;;;5006968;28;9637;-78
2021/07/16 05:21:35;;;;;;;;;6.00;6.00;;;;;;;;5004831;28;8976;-76
2021/07/16 05:24:03;;;;;;;;;4.75;4.75;;;;;;;;5000246;28;8863;-81
2021/07/16 05:26:31;;;;;;;;;5.25;5.25;;;;;;;;5006458;28;8915;-80
2021/07/16 05:28:59;;;;;;;;;5.00;5.00;;;;;;;;5000995;28;8863;-81
2021/07/16 05:31:27;;;;;;;;;5.50;5.50;;;;;;;;5000716;28;8886;-80
2021/07/16 05:33:54;;;;;;;;;5.25;4.25;;;;;;;;5002701;28;9001;-80
2021/07/16 05:36:21;;;;;;;;;7.25;6.00;;;;;;;;5002412;28;9414;-80
2021/07/16 05:38:49;;;;;;;;;4.00;4.00;;;;;;;;5008564;28;8883;-80
2021/07/16 05:41:16;;;;;;;;;3.75;3.75;;;;;;;;5005012;28;8909;-81
2021/07/16 05:43:43;;;;;;;;;4.50;4.50;;;;;;;;5008647;28;8881;-81
2021/07/16 05:46:12;;;;;;;;;5.25;5.25;;;;;;;;5002635;28;8883;-79
2021/07/16 05:48:44;;;;;;;;;3.25;3.25;;;;;;;;5007837;28;8875;-80
2021/07/16 05:51:11;;;;;;;;;5.50;5.50;;;;;;;;5000274;28;9025;-81
2021/07/16 05:53:38;;;;;;;;;5.75;5.75;;;;;;;;5003807;28;8901;-81
2021/07/16 05:56:06;;;;;;;;;7.25;6.00;;;;;;;;5004943;28;8875;-81
2021/07/16 05:58:34;;;;;;;;;5.00;5.00;;;;;;;;5022246;28;8868;-80
2021/07/16 06:01:01;;;;;;;;;1.25;1.25;;;;;;;;5020583;28;8796;-80
2021/07/16 06:03:30;;;;;;;;;6.25;6.25;;;;;;;;5023162;28;8855;-83
2021/07/16 06:05:57;;;;;;;;;3.75;3.00;;;;;;;;5010152;28;8890;-83
2021/07/16 06:08:24;;;;;;;;;4.00;4.00;;;;;;;;5024880;28;8995;-80
2021/07/16 06:10:52;;;;;;;;;4.50;4.50;;;;;;;;5007907;28;9533;-78
2021/07/16 06:13:19;;;;;;;;;5.00;5.00;;;;;;;;5006113;28;8889;-79
2021/07/16 06:15:46;;;;;;;;;4.75;4.75;;;;;;;;5002034;28;8942;-79
2021/07/16 06:18:13;;;;;;;;;5.00;5.00;;;;;;;;5003452;28;8871;-80
2021/07/16 06:20:44;;;;;;;;;4.50;4.50;;;;;;;;5007473;28;9763;-81
2021/07/16 06:23:12;;;;;;;;;6.00;6.00;;;;;;;;5019105;28;9615;-83
2021/07/16 06:25:39;;;;;;;;;7.00;7.00;;;;;;;;5011967;28;8985;-78
2021/07/16 06:28:07;;;;;;;;;4.75;4.00;;;;;;;;5009212;28;8871;-76
2021/07/16 06:30:34;;;;;;;;;6.75;5.25;;;;;;;;5016923;28;8783;-78
2021/07/16 06:33:02;;;;;;;;;7.00;6.00;;;;;;;;5008993;28;8879;-77
2021/07/16 06:35:29;;;;;;;;;7.75;5.50;;;;;;;;5027605;28;8857;-75
2021/07/16 06:37:57;;;;;;;;;5.25;5.25;;;;;;;;5025215;28;8923;-75
2021/07/16 06:40:25;;;;;;;;;5.00;5.00;;;;;;;;5005110;28;8866;-76
2021/07/16 06:42:52;;;;;;;;;6.00;4.75;;;;;;;;5005417;28;8934;-77
2021/07/16 06:45:19;;;;;;;;;4.00;4.00;;;;;;;;5025645;28;8915;-75
2021/07/16 06:47:46;;;;;;;;;7.25;5.00;;;;;;;;5009846;28;8875;-81
2021/07/16 06:50:14;;;;;;;;;4.00;4.00;;;;;;;;5026450;28;9635;-77
2021/07/16 06:52:41;;;;;;;;;3.00;3.00;;;;;;;;5022456;28;9036;-76
2021/07/16 06:55:11;;;;;;;;;5.50;4.00;;;;;;;;5005470;28;8977;-76
2021/07/16 06:57:38;;;;;;;;;5.00;4.50;;;;;;;;5008781;28;9003;-77
2021/07/16 07:00:06;;;;;;;;;4.00;4.00;;;;;;;;5009711;28;8879;-75
2021/07/16 07:02:34;;;;;;;;;3.50;2.00;;;;;;;;5007000;28;8939;-75
2021/07/16 07:05:01;;;;;;;;;5.50;5.50;;;;;;;;5010400;28;8900;-76
2021/07/16 07:07:28;;;;;;;;;7.50;4.00;;;;;;;;5016160;28;8848;-77
2021/07/16 07:09:55;;;;;;;;;4.00;4.00;;;;;;;;5009009;28;8867;-74
2021/07/16 07:12:24;;;;;;;;;6.75;5.25;;;;;;;;5005331;28;8847;-74
2021/07/16 07:14:52;;;;;;;;;5.25;5.25;;;;;;;;4993581;28;8872;-75
2021/07/16 07:17:20;;;;;;;;;6.75;5.00;;;;;;;;5005045;28;9016;-74
2021/07/16 07:19:47;;;;;;;;;6.00;4.50;;;;;;;;5006254;28;8866;-75
2021/07/16 07:22:14;;;;;;;;;5.00;5.00;;;;;;;;5005160;28;8975;-76
2021/07/16 07:24:41;;;;;;;;;6.00;6.00;;;;;;;;5000832;28;9057;-75
2021/07/16 07:27:09;;;;;;;;;5.00;4.00;;;;;;;;5006168;28;8896;-74
2021/07/16 07:29:38;;;;;;;;;4.00;4.00;;;;;;;;5005287;28;8894;-75
2021/07/16 07:32:05;;;;;;;;;5.75;5.00;;;;;;;;5005055;28;8809;-75
2021/07/16 07:34:33;;;;;;;;;4.75;4.75;;;;;;;;5004591;28;8879;-74
2021/07/16 07:37:00;;;;;;;;;4.25;4.00;;;;;;;;5005747;28;8880;-79
2021/07/16 07:39:28;;;;;;;;;6.00;6.00;;;;;;;;5004965;28;8868;-81
2021/07/16 07:41:56;;;;;;;;;13.75;8.25;;;;;;;;5004123;28;8874;-75
2021/07/16 07:44:23;;;;;;;;;8.25;8.25;;;;;;;;5005721;28;8867;-76
2021/07/16 07:46:51;;;;;;;;;7.00;7.00;;;;;;;;5004639;28;9023;-75
2021/07/16 07:49:19;;;;;;;;;13.00;9.00;;;;;;;;5005326;28;8867;-75
2021/07/16 07:51:46;;;;;;;;;11.50;9.00;;;;;;;;5003324;28;8896;-76
2021/07/16 07:54:13;;;;;;;;;8.00;8.00;;;;;;;;5005668;28;8875;-78
2021/07/16 07:56:41;;;;;;;;;12.75;12.75;;;;;;;;5004208;28;8894;-77
2021/07/16 07:59:08;;;;;;;;;10.00;9.00;;;;;;;;5005157;28;8876;-78
2021/07/16 08:01:36;;;;;;;;;8.50;7.50;;;;;;;;5004266;28;8829;-78
2021/07/16 08:04:05;;;;;;;;;9.75;8.25;;;;;;;;5004935;28;8902;-77
2021/07/16 08:06:33;;;;;;;;;10.00;10.00;;;;;;;;5005241;28;8896;-77
2021/07/16 08:09:00;;;;;;;;;10.25;10.25;;;;;;;;5004499;28;8989;-78
2021/07/16 08:11:30;;;;;;;;;14.00;10.25;;;;;;;;5005763;28;8967;-77
2021/07/16 08:13:58;;;;;;;;;6.75;6.75;;;;;;;;5003956;28;8874;-77
2021/07/16 08:16:25;;;;;;;;;13.25;10.00;;;;;;;;5004501;28;8858;-76
2021/07/16 08:18:52;;;;;;;;;9.00;7.25;;;;;;;;5004290;28;9630;-76
2021/07/16 08:21:22;;;;;;;;;9.75;8.00;;;;;;;;5004981;28;8890;-75
2021/07/16 08:23:49;;;;;;;;;9.75;8.00;;;;;;;;5004072;28;8873;-76
2021/07/16 08:26:18;;;;;;;;;9.00;8.00;;;;;;;;5003567;28;8955;-77
2021/07/16 08:28:45;;;;;;;;;10.00;10.00;;;;;;;;5010119;28;8869;-77
2021/07/16 08:31:13;;;;;;;;;6.75;6.75;;;;;;;;5007835;28;8829;-77
2021/07/16 08:33:40;;;;;;;;;9.00;7.00;;;;;;;;5005369;28;8867;-78
2021/07/16 08:36:07;;;;;;;;;9.50;9.50;;;;;;;;5012817;28;8981;-84
2021/07/16 08:38:36;;;;;;;;;8.25;7.50;;;;;;;;5024598;28;9488;-78
2021/07/16 08:41:03;;;;;;;;;10.00;7.00;;;;;;;;5016859;28;9598;-78
2021/07/16 08:43:35;;;;;;;;;9.00;9.00;;;;;;;;5003638;28;8859;-78
2021/07/16 08:46:03;;;;;;;;;8.50;7.00;;;;;;;;5006073;28;8875;-79
2021/07/16 08:48:32;;;;;;;;;7.00;7.00;;;;;;;;5013221;28;8885;-82
2021/07/16 08:51:01;;;;;;;;;6.25;6.25;;;;;;;;5016293;28;8872;-80
2021/07/16 08:53:28;;;;;;;;;6.75;6.75;;;;;;;;5023944;28;8888;-81
2021/07/16 08:55:57;;;;;;;;;7.50;6.00;;;;;;;;5007106;28;8890;-81
2021/07/16 08:58:24;;;;;;;;;9.25;9.25;;;;;;;;5006317;28;8870;-80
2021/07/16 09:00:53;;;;;;;;;5.00;5.00;;;;;;;;5002195;28;9597;-77
2021/07/16 09:03:20;;;;;;;;;8.25;8.25;;;;;;;;5004737;28;8969;-77
2021/07/16 09:05:47;;;;;;;;;12.50;11.25;;;;;;;;4999370;28;9004;-79
2021/07/16 09:08:16;;;;;;;;;10.25;8.25;;;;;;;;5005194;28;8867;-78
2021/07/16 09:10:48;;;;;;;;;6.50;6.50;;;;;;;;5006644;28;9003;-78
2021/07/16 09:13:17;;;;;;;;;9.00;9.00;;;;;;;;5010937;28;8897;-80
2021/07/16 09:15:50;;;;;;;;;10.50;9.00;;;;;;;;5003550;28;8856;-79
2021/07/16 09:18:23;;;;;;;;;6.75;6.75;;;;;;;;5002221;28;8882;-80
2021/07/16 09:20:51;;;;;;;;;9.00;9.00;;;;;;;;4998601;28;8892;-76
2021/07/16 09:23:20;;;;;;;;;8.75;8.75;;;;;;;;5015144;28;8887;-78
2021/07/16 09:26:07;;;;;;;;;9.25;7.50;;;;;;;;5016553;28;8989;-77
2021/07/16 09:28:36;;;;;;;;;7.00;7.00;;;;;;;;5000881;28;8833;-77
2021/07/16 09:31:12;;;;;;;;;8.60;8.20;;;;;;;;5002663;28;8935;-77
2021/07/16 09:33:47;;;;;;;;;10.40;7.20;;;;;;;;5004397;28;8970;-78
2021/07/16 09:36:24;;;;;;;;;6.60;6.60;;;;;;;;5010119;28;8839;-77
2021/07/16 09:38:52;;;;;;;;;8.00;8.00;;;;;;;;5004596;28;8876;-76
2021/07/16 09:41:20;;;;;;;;;10.00;9.00;;;;;;;;5004526;28;8901;-81
2021/07/16 09:43:51;;;;;;;;;9.60;9.00;;;;;;;;5004577;28;8876;-78
2021/07/16 09:46:19;;;;;;;;;8.80;8.80;;;;;;;;5010803;28;8860;-76
2021/07/16 09:48:46;;;;;;;;;6.40;6.40;;;;;;;;5015606;28;8869;-77
2021/07/16 09:51:18;;;;;;;;;18.25;18.00;;;;;;;;5004450;28;8985;-76
2021/07/16 09:53:49;;;;;;;;;10.40;9.00;;;;;;;;5007873;28;8890;-76
2021/07/16 09:56:18;;;;;;;;;14.40;13.40;;;;;;;;5007350;28;8860;-76
2021/07/16 09:58:46;;;;;;;;;12.25;10.50;;;;;;;;5004475;28;8864;-76
2021/07/16 10:01:14;;;;;;;;;11.80;11.80;;;;;;;;5009768;28;8819;-79
2021/07/16 10:03:42;;;;;;;;;11.00;11.00;;;;;;;;5004667;28;8880;-80
2021/07/16 10:06:13;;;;;;;;;13.20;10.60;;;;;;;;5007242;28;8886;-78
2021/07/16 10:08:42;;;;;;;;;8.60;8.60;;;;;;;;5011858;28;8975;-78
2021/07/16 10:11:11;;;;;;;;;11.60;9.80;;;;;;;;4997310;28;8921;-77
2021/07/16 10:13:40;;;;;;;;;9.80;9.80;;;;;;;;5015863;28;8861;-78
2021/07/16 10:16:07;;;;;;;;;12.80;11.40;;;;;;;;5008508;28;8874;-79
2021/07/16 10:18:36;;;;;;;;;11.00;10.50;;;;;;;;5011703;28;8891;-78
2021/07/16 10:21:03;;;;;;;;;7.75;7.25;;;;;;;;5015046;28;8853;-77
2021/07/16 10:23:30;;;;;;;;;12.50;12.50;;;;;;;;4992565;28;9714;-80
2021/07/16 10:25:59;;;;;;;;;11.50;10.00;;;;;;;;5013179;28;8865;-77
2021/07/16 10:28:35;;;;;;;;;9.75;9.25;;;;;;;;5007135;28;8913;-77
2021/07/16 10:31:03;;;;;;;;;9.25;9.25;;;;;;;;5002524;28;8812;-77
2021/07/16 10:33:39;;;;;;;;;10.00;10.00;;;;;;;;5002341;28;8980;-76
2021/07/16 10:36:13;;;;;;;;;13.60;11.00;;;;;;;;5002964;28;9629;-77
2021/07/16 10:38:40;;;;;;;;;10.40;9.00;;;;;;;;5001632;28;8902;-77
2021/07/16 10:41:30;;;;;;;;;10.60;9.80;;;;;;;;5000158;28;8864;-77
2021/07/16 10:43:57;;;;;;;;;8.60;8.60;;;;;;;;4997867;28;8864;-78
2021/07/16 10:46:33;;;;;;;;;10.60;10.00;;;;;;;;4996206;28;8848;-77
2021/07/16 10:49:02;;;;;;;;;13.20;11.20;;;;;;;;4999118;28;8884;-77
2021/07/16 10:51:31;;;;;;;;;11.20;8.80;;;;;;;;5005731;28;8923;-76
2021/07/16 10:53:59;;;;;;;;;11.80;11.80;;;;;;;;5000968;28;8978;-74
2021/07/16 10:56:45;;;;;;;;;10.40;10.40;;;;;;;;5007049;28;8967;-76
2021/07/16 10:59:50;;;;;;;;;11.00;11.00;;;;;;;;4973273;28;8873;-78
2021/07/16 11:02:49;;;;;;;;;13.60;12.80;;;;;;;;4997279;28;8816;-76
2021/07/16 11:05:55;;;;;;;;;11.80;11.40;;;;;;;;5002133;28;8860;-74
2021/07/16 11:08:50;;;;;;;;;13.00;12.60;;;;;;;;5005243;28;8849;-76
2021/07/16 11:11:19;;;;;;;;;14.40;14.40;;;;;;;;5004620;28;8895;-76
2021/07/16 11:13:48;;;;;;;;;13.00;11.60;;;;;;;;5006407;28;8930;-78
2021/07/16 11:16:44;;;;;;;;;13.20;11.60;;;;;;;;5004281;28;8867;-76
2021/07/16 11:19:23;;;;;;;;;11.80;10.60;;;;;;;;5004689;28;8979;-76
2021/07/16 11:22:09;;;;;;;;;12.40;12.40;;;;;;;;5004201;28;8959;-80
2021/07/16 11:24:42;;;;;;;;;13.00;11.40;;;;;;;;5002151;28;8860;-76
2021/07/16 11:27:12;;;;;;;;;10.60;9.80;;;;;;;;5004118;28;8968;-75
2021/07/16 11:29:41;;;;;;;;;13.40;10.60;;;;;;;;5007778;28;8898;-76
2021/07/16 11:32:11;;;;;;;;;9.60;9.40;;;;;;;;5003048;28;8972;-78
2021/07/16 11:34:45;;;;;;;;;12.80;12.80;;;;;;;;5004145;28;8851;-77
2021/07/16 11:37:24;;;;;;;;;9.40;8.80;;;;;;;;5004643;28;8879;-81
2021/07/16 11:39:54;;;;;;;;;11.20;10.20;;;;;;;;5005219;28;8877;-78
2021/07/16 11:42:21;;;;;;;;;12.00;8.40;;;;;;;;5004137;28;8879;-79
2021/07/16 11:44:49;;;;;;;;;11.00;7.80;;;;;;;;5004037;28;8870;-76
2021/07/16 11:47:18;;;;;;;;;11.40;11.40;;;;;;;;5003413;28;8888;-76
2021/07/16 11:49:47;;;;;;;;;14.60;11.80;;;;;;;;5005221;28;8937;-77
2021/07/16 11:52:19;;;;;;;;;12.20;12.20;;;;;;;;4985509;28;8906;-78
2021/07/16 11:54:46;;;;;;;;;12.60;12.60;;;;;;;;5006171;28;8859;-80
2021/07/16 11:57:15;;;;;;;;;13.60;11.00;;;;;;;;5006901;28;8881;-78
2021/07/16 11:59:48;;;;;;;;;12.60;12.40;;;;;;;;5001692;28;8851;-77
2021/07/16 12:02:16;;;;;;;;;10.80;10.60;;;;;;;;5004995;28;8835;-81
2021/07/16 12:04:45;;;;;;;;;13.60;10.20;;;;;;;;5006338;28;8890;-76
2021/07/16 12:07:13;;;;;;;;;13.20;13.20;;;;;;;;5001118;28;8876;-75
2021/07/16 12:09:44;;;;;;;;;12.40;11.00;;;;;;;;4986923;28;8936;-80
2021/07/16 12:12:13;;;;;;;;;10.60;10.60;;;;;;;;4986241;28;8859;-78
2021/07/16 12:14:52;;;;;;;;;11.80;11.80;;;;;;;;5009976;28;8904;-79
2021/07/16 12:17:22;;;;;;;;;16.20;15.00;;;;;;;;5013454;28;8886;-78
2021/07/16 12:19:50;;;;;;;;;13.40;11.80;;;;;;;;5003040;28;9007;-77
2021/07/16 12:22:21;;;;;;;;;14.00;12.00;;;;;;;;5006695;28;9028;-79
2021/07/16 12:24:50;;;;;;;;;11.40;10.40;;;;;;;;5001603;28;9653;-78
2021/07/16 12:27:18;;;;;;;;;9.00;9.00;;;;;;;;5015185;28;8983;-78
2021/07/16 12:29:46;;;;;;;;;12.40;12.40;;;;;;;;5019321;28;8869;-77
2021/07/16 12:32:13;;;;;;;;;12.00;10.00;;;;;;;;5024360;28;8832;-78
2021/07/16 12:34:45;;;;;;;;;11.60;9.80;;;;;;;;5023251;28;8857;-78
2021/07/16 12:37:14;;;;;;;;;13.80;11.60;;;;;;;;5025044;28;8880;-76
2021/07/16 12:39:42;;;;;;;;;10.00;10.00;;;;;;;;5020573;28;8885;-77
2021/07/16 12:42:17;;;;;;;;;9.00;9.00;;;;;;;;5007394;28;8885;-77
2021/07/16 12:45:07;;;;;;;;;9.60;9.60;;;;;;;;4998102;28;8845;-76
2021/07/16 12:47:35;;;;;;;;;10.00;10.00;;;;;;;;5023237;28;9716;-78
2021/07/16 12:50:07;;;;;;;;;9.60;9.40;;;;;;;;5024725;28;8891;-76
2021/07/16 12:52:35;;;;;;;;;18.60;15.60;;;;;;;;5023613;28;9015;-78
2021/07/16 12:55:16;;;;;;;;;11.80;9.80;;;;;;;;5024070;28;8904;-77
2021/07/16 12:57:46;;;;;;;;;10.60;10.60;;;;;;;;5012129;28;8906;-79
2021/07/16 13:00:16;;;;;;;;;13.20;11.40;;;;;;;;5016507;28;9552;-78
2021/07/16 13:02:45;;;;;;;;;12.60;12.00;;;;;;;;5024518;28;8898;-77
2021/07/16 13:05:12;;;;;;;;;12.00;11.20;;;;;;;;5008104;28;8991;-78
2021/07/16 13:07:39;;;;;;;;;14.60;12.40;;;;;;;;5013197;28;8882;-77
2021/07/16 13:10:22;;;;;;;;;15.40;11.00;;;;;;;;5018659;28;9284;-77
2021/07/16 13:12:50;;;;;;;;;10.60;10.60;;;;;;;;5011904;28;8888;-77
2021/07/16 13:15:18;;;;;;;;;9.80;9.80;;;;;;;;5007484;28;9631;-78
2021/07/16 13:17:45;;;;;;;;;9.60;8.00;;;;;;;;5014171;28;8906;-78
2021/07/16 13:20:14;;;;;;;;;12.60;11.80;;;;;;;;5021250;28;8899;-77
2021/07/16 13:22:42;;;;;;;;;17.20;13.00;;;;;;;;5019365;28;9566;-79
2021/07/16 13:25:12;;;;;;;;;8.00;7.60;;;;;;;;5008635;28;8881;-77
2021/07/16 13:27:40;;;;;;;;;11.80;11.80;;;;;;;;5020426;28;8889;-78
2021/07/16 13:30:10;;;;;;;;;12.20;12.20;;;;;;;;5021931;28;8899;-78
2021/07/16 13:32:37;;;;;;;;;11.00;11.00;;;;;;;;5017069;28;8990;-77
2021/07/16 13:35:05;;;;;;;;;12.00;11.20;;;;;;;;5022354;28;8899;-78
2021/07/16 13:37:35;;;;;;;;;9.20;9.20;;;;;;;;5023687;28;8899;-77
2021/07/16 13:40:03;;;;;;;;;11.20;10.60;;;;;;;;5020258;28;8908;-78
2021/07/16 13:42:30;;;;;;;;;13.80;12.00;;;;;;;;5017038;28;8868;-79
2021/07/16 13:44:58;;;;;;;;;11.80;11.80;;;;;;;;5020774;28;8872;-78
2021/07/16 13:47:26;;;;;;;;;13.80;12.00;;;;;;;;5021466;28;8872;-77
2021/07/16 13:49:53;;;;;;;;;13.80;11.00;;;;;;;;5004254;28;8863;-77
2021/07/16 13:52:21;;;;;;;;;13.60;12.60;;;;;;;;5002854;28;9001;-77
2021/07/16 13:54:48;;;;;;;;;13.60;12.80;;;;;;;;5011811;28;8946;-77
2021/07/16 13:57:19;;;;;;;;;10.80;9.80;;;;;;;;5022020;28;9753;-78
2021/07/16 13:59:47;;;;;;;;;13.20;10.00;;;;;;;;5002198;28;8915;-77
2021/07/16 14:02:14;;;;;;;;;11.00;10.80;;;;;;;;5021994;28;8839;-77
2021/07/16 14:04:42;;;;;;;;;10.80;10.80;;;;;;;;5014694;28;8881;-78
2021/07/16 14:07:10;;;;;;;;;10.40;10.40;;;;;;;;5016798;28;8886;-78
2021/07/16 14:09:37;;;;;;;;;11.40;10.60;;;;;;;;5002385;28;9005;-78
2021/07/16 14:12:05;;;;;;;;;10.40;10.40;;;;;;;;5007361;28;9725;-77
2021/07/16 14:14:32;;;;;;;;;9.40;9.20;;;;;;;;5021036;28;8876;-78
2021/07/16 14:17:00;;;;;;;;;10.60;9.00;;;;;;;;5018691;28;8889;-77
2021/07/16 14:19:27;;;;;;;;;11.60;11.60;;;;;;;;5013087;28;8877;-78
2021/07/16 14:21:55;;;;;;;;;12.00;8.80;;;;;;;;5022407;28;8896;-78
2021/07/16 14:24:23;;;;;;;;;9.00;9.00;;;;;;;;5015983;28;8885;-77
2021/07/16 14:26:50;;;;;;;;;9.40;9.40;;;;;;;;5010549;28;8868;-78
2021/07/16 14:29:19;;;;;;;;;12.60;12.00;;;;;;;;5026887;28;8888;-78
2021/07/16 14:31:46;;;;;;;;;11.60;10.40;;;;;;;;5006869;28;8857;-77
2021/07/16 14:34:14;;;;;;;;;10.20;10.20;;;;;;;;5019773;28;8974;-77
2021/07/16 14:36:42;;;;;;;;;11.80;11.20;;;;;;;;5020179;28;8913;-78
2021/07/16 14:39:11;;;;;;;;;13.80;12.00;;;;;;;;5012150;28;9495;-77
2021/07/16 14:41:38;;;;;;;;;10.20;8.80;;;;;;;;5021328;28;8860;-79
2021/07/16 14:44:06;;;;;;;;;13.40;11.20;;;;;;;;5029380;28;8865;-79
2021/07/16 14:46:36;;;;;;;;;7.80;7.80;;;;;;;;5027933;28;8861;-77
2021/07/16 14:49:05;;;;;;;;;13.40;10.80;;;;;;;;5025506;28;8865;-80
2021/07/16 14:51:32;;;;;;;;;12.60;9.80;;;;;;;;5027399;28;8897;-79
2021/07/16 14:54:01;;;;;;;;;8.80;8.20;;;;;;;;5025556;28;8898;-77
2021/07/16 14:56:30;;;;;;;;;13.00;8.20;;;;;;;;5023516;28;9000;-78
2021/07/16 14:58:58;;;;;;;;;9.40;9.40;;;;;;;;5010067;28;9615;-77
2021/07/16 15:01:25;;;;;;;;;9.20;9.00;;;;;;;;5024645;28;8824;-78
2021/07/16 15:03:52;;;;;;;;;10.60;8.80;;;;;;;;5026465;28;8976;-78
2021/07/16 15:06:20;;;;;;;;;8.20;8.20;;;;;;;;5025253;28;8904;-78
2021/07/16 15:08:47;;;;;;;;;10.00;10.00;;;;;;;;5024192;28;8899;-78
2021/07/16 15:11:14;;;;;;;;;12.00;8.40;;;;;;;;5004938;28;8874;-78
2021/07/16 15:13:43;;;;;;;;;8.40;8.40;;;;;;;;5015693;28;8890;-77